sensor_id;sensor_type;location;lat;lon;timestamp;pressure;altitude;pressure_sealevel;temperature;humidity
32789;BME280;19141;48.980;8.410;2023-05-27T04:22:32;100948.88;;;12.65;73.64
32789;BME280;19141;48.980;8.410;2023-05-27T04:24:57;100939.03;;;12.57;73.37
32789;BME280;19141;48.980;8.410;2023-05-27T04:27:25;100946.19;;;12.65;72.80
32789;BME280;19141;48.980;8.410;2023-05-27T04:29:52;100949.75;;;12.65;72.55
32789;BME280;19141;48.980;8.410;2023-05-27T04:32:17;100943.38;;;12.66;72.60
32789;BME280;19141;48.980;8.410;2023-05-27T04:34:46;100950.03;;;12.79;72.24
32789;BME280;19141;48.980;8.410;2023-05-27T04:37:12;100949.50;;;12.83;71.72
32789;BME280;19141;48.980;8.410;2023-05-27T04:39:38;100950.03;;;12.87;71.83
32789;BME280;19141;48.980;8.410;2023-05-27T04:42:11;100941.16;;;12.86;71.57
32789;BME280;19141;48.980;8.410;2023-05-27T04:44:41;100945.84;;;12.92;71.21
32789;BME280;19141;48.980;8.410;2023-05-27T04:47:06;100944.00;;;12.93;70.96
32789;BME280;19141;48.980;8.410;2023-05-27T04:49:32;100949.47;;;12.99;70.83
32789;BME280;19141;48.980;8.410;2023-05-27T04:51:59;100940.94;;;12.96;70.58
32789;BME280;19141;48.980;8.410;2023-05-27T04:54:25;100945.28;;;12.97;70.74
32789;BME280;19141;48.980;8.410;2023-05-27T04:56:51;100947.63;;;13.00;70.35
32789;BME280;19141;48.980;8.410;2023-05-27T04:59:20;100944.59;;;13.03;70.20
32789;BME280;19141;48.980;8.410;2023-05-27T05:01:47;100947.56;;;13.16;69.21
32789;BME280;19141;48.980;8.410;2023-05-27T05:04:39;100940.41;;;13.09;69.45
32789;BME280;19141;48.980;8.410;2023-05-27T05:07:05;100947.09;;;13.21;69.10
32789;BME280;19141;48.980;8.410;2023-05-27T05:09:32;100942.38;;;13.23;68.55
32789;BME280;19141;48.980;8.410;2023-05-27T05:12:05;100948.72;;;13.30;69.18
32789;BME280;19141;48.980;8.410;2023-05-27T05:14:36;100940.53;;;13.32;68.33
32789;BME280;19141;48.980;8.410;2023-05-27T05:17:01;100943.22;;;13.32;68.64
32789;BME280;19141;48.980;8.410;2023-05-27T05:19:27;100947.50;;;13.41;68.55
32789;BME280;19141;48.980;8.410;2023-05-27T05:21:52;100946.50;;;13.42;67.72
32789;BME280;19141;48.980;8.410;2023-05-27T05:24:18;100945.16;;;13.46;67.29
32789;BME280;19141;48.980;8.410;2023-05-27T05:26:44;100948.88;;;13.37;67.35
32789;BME280;19141;48.980;8.410;2023-05-27T05:29:10;100949.00;;;13.43;66.92
32789;BME280;19141;48.980;8.410;2023-05-27T05:31:36;100945.97;;;13.46;67.23
32789;BME280;19141;48.980;8.410;2023-05-27T05:34:02;100952.81;;;13.49;67.32
32789;BME280;19141;48.980;8.410;2023-05-27T05:36:30;100951.47;;;13.53;66.92
32789;BME280;19141;48.980;8.410;2023-05-27T05:39:03;100950.56;;;13.61;66.02
32789;BME280;19141;48.980;8.410;2023-05-27T05:41:29;100951.78;;;13.58;67.02
32789;BME280;19141;48.980;8.410;2023-05-27T05:43:55;100945.00;;;13.70;67.42
32789;BME280;19141;48.980;8.410;2023-05-27T05:46:21;100942.81;;;13.74;67.25
32789;BME280;19141;48.980;8.410;2023-05-27T05:48:46;100944.06;;;13.86;65.74
32789;BME280;19141;48.980;8.410;2023-05-27T05:51:16;100941.75;;;13.83;65.68
32789;BME280;19141;48.980;8.410;2023-05-27T05:53:45;100938.91;;;13.84;65.62
32789;BME280;19141;48.980;8.410;2023-05-27T05:56:11;100930.91;;;13.99;65.33
32789;BME280;19141;48.980;8.410;2023-05-27T05:58:37;100935.97;;;13.94;64.88
32789;BME280;19141;48.980;8.410;2023-05-27T06:01:02;100936.38;;;14.06;64.92
32789;BME280;19141;48.980;8.410;2023-05-27T06:03:35;100936.31;;;14.14;65.09
32789;BME280;19141;48.980;8.410;2023-05-27T06:06:02;100941.88;;;14.12;64.55
32789;BME280;19141;48.980;8.410;2023-05-27T06:08:29;100940.50;;;14.17;64.07
32789;BME280;19141;48.980;8.410;2023-05-27T06:11:01;100935.97;;;14.17;64.56
32789;BME280;19141;48.980;8.410;2023-05-27T06:13:29;100939.19;;;14.35;63.70
32789;BME280;19141;48.980;8.410;2023-05-27T06:15:57;100938.03;;;14.30;63.97
32789;BME280;19141;48.980;8.410;2023-05-27T06:18:23;100940.13;;;14.43;64.25
32789;BME280;19141;48.980;8.410;2023-05-27T06:20:49;100934.53;;;14.29;63.90
32789;BME280;19141;48.980;8.410;2023-05-27T06:23:14;100943.38;;;14.53;64.36
32789;BME280;19141;48.980;8.410;2023-05-27T06:26:00;100939.44;;;14.40;63.41
32789;BME280;19141;48.980;8.410;2023-05-27T06:28:29;100931.88;;;14.67;62.65
32789;BME280;19141;48.980;8.410;2023-05-27T06:30:55;100937.88;;;14.54;62.19
32789;BME280;19141;48.980;8.410;2023-05-27T06:33:21;100932.56;;;14.46;62.57
32789;BME280;19141;48.980;8.410;2023-05-27T06:35:46;100935.00;;;14.56;63.19
32789;BME280;19141;48.980;8.410;2023-05-27T06:38:12;100941.94;;;14.65;62.29
32789;BME280;19141;48.980;8.410;2023-05-27T06:40:38;100937.59;;;14.64;61.74
32789;BME280;19141;48.980;8.410;2023-05-27T06:43:04;100932.22;;;14.64;62.47
32789;BME280;19141;48.980;8.410;2023-05-27T06:45:48;100932.41;;;14.77;61.74
32789;BME280;19141;48.980;8.410;2023-05-27T06:48:25;100930.56;;;14.78;62.18
32789;BME280;19141;48.980;8.410;2023-05-27T06:50:50;100936.31;;;14.89;62.48
32789;BME280;19141;48.980;8.410;2023-05-27T06:53:15;100930.94;;;14.89;62.19
32789;BME280;19141;48.980;8.410;2023-05-27T06:55:54;100928.84;;;15.00;60.94
32789;BME280;19141;48.980;8.410;2023-05-27T06:58:38;100933.06;;;15.09;60.84
32789;BME280;19141;48.980;8.410;2023-05-27T07:01:11;100920.31;;;14.96;61.32
32789;BME280;19141;48.980;8.410;2023-05-27T07:03:52;100929.38;;;15.10;60.72
32789;BME280;19141;48.980;8.410;2023-05-27T07:06:37;100927.81;;;15.01;59.89
32789;BME280;19141;48.980;8.410;2023-05-27T07:09:03;100928.53;;;15.09;59.52
32789;BME280;19141;48.980;8.410;2023-05-27T07:11:32;100930.56;;;15.22;59.73
32789;BME280;19141;48.980;8.410;2023-05-27T07:14:02;100930.47;;;15.15;59.13
32789;BME280;19141;48.980;8.410;2023-05-27T07:16:31;100940.44;;;15.36;59.19
32789;BME280;19141;48.980;8.410;2023-05-27T07:18:57;100937.91;;;15.50;59.07
32789;BME280;19141;48.980;8.410;2023-05-27T07:21:22;100942.16;;;15.59;58.31
32789;BME280;19141;48.980;8.410;2023-05-27T07:23:48;100927.00;;;15.66;57.84
32789;BME280;19141;48.980;8.410;2023-05-27T07:26:27;100927.75;;;15.81;57.73
32789;BME280;19141;48.980;8.410;2023-05-27T07:28:57;100926.38;;;15.85;58.54
32789;BME280;19141;48.980;8.410;2023-05-27T07:31:32;100930.13;;;15.91;58.88
32789;BME280;19141;48.980;8.410;2023-05-27T07:34:03;100915.38;;;15.80;57.58
32789;BME280;19141;48.980;8.410;2023-05-27T07:36:29;100917.34;;;15.93;57.88
32789;BME280;19141;48.980;8.410;2023-05-27T07:38:54;100915.69;;;16.13;56.98
32789;BME280;19141;48.980;8.410;2023-05-27T07:41:20;100918.38;;;16.13;57.27
32789;BME280;19141;48.980;8.410;2023-05-27T07:43:47;100908.84;;;16.11;57.45
32789;BME280;19141;48.980;8.410;2023-05-27T07:46:12;100913.56;;;16.30;58.20
32789;BME280;19141;48.980;8.410;2023-05-27T07:48:39;100911.22;;;16.55;56.45
32789;BME280;19141;48.980;8.410;2023-05-27T07:51:05;100915.16;;;16.52;56.51
32789;BME280;19141;48.980;8.410;2023-05-27T07:53:31;100913.81;;;16.63;56.37
32789;BME280;19141;48.980;8.410;2023-05-27T07:55:57;100907.59;;;16.63;56.31
32789;BME280;19141;48.980;8.410;2023-05-27T07:58:22;100895.00;;;16.42;56.28
32789;BME280;19141;48.980;8.410;2023-05-27T08:01:01;100891.28;;;16.43;56.37
32789;BME280;19141;48.980;8.410;2023-05-27T08:03:27;100897.25;;;16.66;55.74
32789;BME280;19141;48.980;8.410;2023-05-27T08:06:13;100896.53;;;16.79;55.67
32789;BME280;19141;48.980;8.410;2023-05-27T08:08:53;100885.38;;;16.82;55.46
32789;BME280;19141;48.980;8.410;2023-05-27T08:11:32;100889.38;;;16.93;55.94
32789;BME280;19141;48.980;8.410;2023-05-27T08:14:02;100885.53;;;17.08;55.32
32789;BME280;19141;48.980;8.410;2023-05-27T08:16:50;100881.38;;;17.13;55.23
32789;BME280;19141;48.980;8.410;2023-05-27T08:19:33;100868.13;;;17.11;54.77
32789;BME280;19141;48.980;8.410;2023-05-27T08:22:08;100878.56;;;17.41;54.75
32789;BME280;19141;48.980;8.410;2023-05-27T08:24:52;100877.78;;;17.53;54.39
32789;BME280;19141;48.980;8.410;2023-05-27T08:27:45;100870.78;;;17.66;53.71
32789;BME280;19141;48.980;8.410;2023-05-27T08:30:18;100872.28;;;17.75;53.77
32789;BME280;19141;48.980;8.410;2023-05-27T08:32:52;100860.44;;;17.69;53.41
32789;BME280;19141;48.980;8.410;2023-05-27T08:35:17;100869.41;;;17.89;53.53
32789;BME280;19141;48.980;8.410;2023-05-27T08:37:44;100861.91;;;17.78;53.00
32789;BME280;19141;48.980;8.410;2023-05-27T08:40:15;100863.78;;;18.04;53.20
32789;BME280;19141;48.980;8.410;2023-05-27T08:42:49;100867.53;;;18.23;52.89
32789;BME280;19141;48.980;8.410;2023-05-27T08:45:15;100865.03;;;18.28;52.65
32789;BME280;19141;48.980;8.410;2023-05-27T08:47:41;100856.28;;;18.73;51.28
32789;BME280;19141;48.980;8.410;2023-05-27T08:50:10;100860.03;;;18.72;51.73
32789;BME280;19141;48.980;8.410;2023-05-27T08:52:45;100869.06;;;18.90;51.11
32789;BME280;19141;48.980;8.410;2023-05-27T08:55:14;100862.44;;;18.93;51.55
32789;BME280;19141;48.980;8.410;2023-05-27T08:57:42;100860.75;;;19.05;51.39
32789;BME280;19141;48.980;8.410;2023-05-27T09:00:10;100857.00;;;19.06;50.85
32789;BME280;19141;48.980;8.410;2023-05-27T09:02:40;100850.16;;;18.97;51.17
32789;BME280;19141;48.980;8.410;2023-05-27T09:05:06;100853.97;;;19.28;49.89
32789;BME280;19141;48.980;8.410;2023-05-27T09:07:33;100853.13;;;19.34;50.26
32789;BME280;19141;48.980;8.410;2023-05-27T09:09:59;100853.75;;;19.29;49.17
32789;BME280;19141;48.980;8.410;2023-05-27T09:12:27;100849.81;;;19.32;49.40
32789;BME280;19141;48.980;8.410;2023-05-27T09:14:53;100846.25;;;19.76;48.45
32789;BME280;19141;48.980;8.410;2023-05-27T09:17:22;100840.06;;;19.62;49.32
32789;BME280;19141;48.980;8.410;2023-05-27T09:19:50;100840.06;;;19.94;49.22
32789;BME280;19141;48.980;8.410;2023-05-27T09:22:25;100831.88;;;20.00;48.71
32789;BME280;19141;48.980;8.410;2023-05-27T09:24:54;100836.97;;;20.15;48.32
32789;BME280;19141;48.980;8.410;2023-05-27T09:27:38;100830.50;;;20.41;47.32
32789;BME280;19141;48.980;8.410;2023-05-27T09:30:07;100831.91;;;20.44;46.83
32789;BME280;19141;48.980;8.410;2023-05-27T09:32:33;100833.16;;;20.48;47.12
32789;BME280;19141;48.980;8.410;2023-05-27T09:35:00;100828.19;;;20.63;46.74
32789;BME280;19141;48.980;8.410;2023-05-27T09:40:15;100832.56;;;21.31;45.89
32789;BME280;19141;48.980;8.410;2023-05-27T09:42:48;100843.22;;;21.44;45.32
32789;BME280;19141;48.980;8.410;2023-05-27T09:45:15;100828.06;;;21.55;45.32
32789;BME280;19141;48.980;8.410;2023-05-27T09:47:46;100833.28;;;21.68;46.17
32789;BME280;19141;48.980;8.410;2023-05-27T09:50:13;100831.66;;;21.90;44.59
32789;BME280;19141;48.980;8.410;2023-05-27T09:52:42;100821.03;;;21.77;44.59
32789;BME280;19141;48.980;8.410;2023-05-27T09:55:09;100823.75;;;21.77;44.07
32789;BME280;19141;48.980;8.410;2023-05-27T09:57:36;100815.41;;;21.90;44.08
32789;BME280;19141;48.980;8.410;2023-05-27T10:00:06;100819.91;;;22.55;43.03
32789;BME280;19141;48.980;8.410;2023-05-27T10:02:42;100818.00;;;21.97;43.66
32789;BME280;19141;48.980;8.410;2023-05-27T10:05:11;100825.63;;;22.30;43.31
32789;BME280;19141;48.980;8.410;2023-05-27T10:07:39;100816.28;;;22.38;42.97
32789;BME280;19141;48.980;8.410;2023-05-27T10:10:07;100812.25;;;22.52;42.72
32789;BME280;19141;48.980;8.410;2023-05-27T10:12:35;100815.16;;;22.62;42.88
32789;BME280;19141;48.980;8.410;2023-05-27T10:15:01;100812.84;;;23.06;42.41
32789;BME280;19141;48.980;8.410;2023-05-27T10:17:26;100807.06;;;23.31;41.82
32789;BME280;19141;48.980;8.410;2023-05-27T10:19:56;100801.28;;;23.73;41.38
32789;BME280;19141;48.980;8.410;2023-05-27T10:22:22;100805.06;;;24.05;40.08
32789;BME280;19141;48.980;8.410;2023-05-27T10:24:47;100801.34;;;24.12;41.45
32789;BME280;19141;48.980;8.410;2023-05-27T10:27:13;100796.44;;;23.75;40.57
32789;BME280;19141;48.980;8.410;2023-05-27T10:29:39;100789.72;;;24.33;40.81
32789;BME280;19141;48.980;8.410;2023-05-27T10:32:04;100799.78;;;24.32;39.87
32789;BME280;19141;48.980;8.410;2023-05-27T10:34:38;100794.97;;;24.78;40.49
32789;BME280;19141;48.980;8.410;2023-05-27T10:37:07;100796.03;;;24.99;39.92
32789;BME280;19141;48.980;8.410;2023-05-27T10:39:32;100793.78;;;25.45;37.28
32789;BME280;19141;48.980;8.410;2023-05-27T10:41:58;100781.47;;;25.42;38.45
32789;BME280;19141;48.980;8.410;2023-05-27T10:44:34;100781.91;;;25.29;38.22
32789;BME280;19141;48.980;8.410;2023-05-27T10:47:11;100784.00;;;25.76;36.85
32789;BME280;19141;48.980;8.410;2023-05-27T10:49:39;100776.69;;;25.87;36.63
32789;BME280;19141;48.980;8.410;2023-05-27T10:52:08;100772.47;;;25.37;37.56
32789;BME280;19141;48.980;8.410;2023-05-27T10:54:37;100771.16;;;24.96;38.65
32789;BME280;19141;48.980;8.410;2023-05-27T10:57:02;100774.09;;;25.38;37.34
32789;BME280;19141;48.980;8.410;2023-05-27T11:02:23;100776.88;;;25.75;37.21
32789;BME280;19141;48.980;8.410;2023-05-27T11:04:49;100763.72;;;26.04;37.02
32789;BME280;19141;48.980;8.410;2023-05-27T11:07:20;100770.91;;;26.15;35.67
32789;BME280;19141;48.980;8.410;2023-05-27T11:09:47;100776.69;;;26.82;35.20
32789;BME280;19141;48.980;8.410;2023-05-27T11:12:17;100769.34;;;26.87;34.52
32789;BME280;19141;48.980;8.410;2023-05-27T11:14:48;100768.22;;;26.78;35.07
32789;BME280;19141;48.980;8.410;2023-05-27T11:17:14;100767.13;;;26.74;34.49
32789;BME280;19141;48.980;8.410;2023-05-27T11:19:40;100754.06;;;26.34;35.91
32789;BME280;19141;48.980;8.410;2023-05-27T11:22:07;100755.84;;;26.55;35.96
32789;BME280;19141;48.980;8.410;2023-05-27T11:24:32;100758.06;;;26.68;36.16
32789;BME280;19141;48.980;8.410;2023-05-27T11:26:58;100751.38;;;27.17;35.06
32789;BME280;19141;48.980;8.410;2023-05-27T11:29:24;100739.19;;;26.57;35.07
32789;BME280;19141;48.980;8.410;2023-05-27T11:31:49;100740.19;;;26.40;35.25
32789;BME280;19141;48.980;8.410;2023-05-27T11:34:17;100743.13;;;27.01;35.72
32789;BME280;19141;48.980;8.410;2023-05-27T11:36:49;100738.00;;;27.56;34.68
32789;BME280;19141;48.980;8.410;2023-05-27T11:39:14;100730.91;;;27.55;33.92
32789;BME280;19141;48.980;8.410;2023-05-27T11:41:50;100721.59;;;27.61;34.71
32789;BME280;19141;48.980;8.410;2023-05-27T11:44:18;100713.94;;;27.43;35.00
32789;BME280;19141;48.980;8.410;2023-05-27T11:46:45;100712.28;;;27.57;33.79
32789;BME280;19141;48.980;8.410;2023-05-27T11:49:15;100705.47;;;27.59;33.92
32789;BME280;19141;48.980;8.410;2023-05-27T11:51:46;100696.97;;;27.92;33.14
32789;BME280;19141;48.980;8.410;2023-05-27T11:54:29;100707.50;;;28.34;32.70
32789;BME280;19141;48.980;8.410;2023-05-27T11:56:56;100691.72;;;28.00;32.55
32789;BME280;19141;48.980;8.410;2023-05-27T11:59:24;100706.91;;;28.42;32.73
32789;BME280;19141;48.980;8.410;2023-05-27T12:01:50;100693.97;;;28.58;32.63
32789;BME280;19141;48.980;8.410;2023-05-27T12:04:16;100678.13;;;27.29;34.64
32789;BME280;19141;48.980;8.410;2023-05-27T12:06:42;100684.25;;;28.31;33.35
32789;BME280;19141;48.980;8.410;2023-05-27T12:09:09;100686.06;;;28.51;33.78
32789;BME280;19141;48.980;8.410;2023-05-27T12:11:36;100674.63;;;28.34;33.26
32789;BME280;19141;48.980;8.410;2023-05-27T12:14:01;100678.44;;;28.87;32.75
32789;BME280;19141;48.980;8.410;2023-05-27T12:16:27;100680.06;;;29.28;32.95
32789;BME280;19141;48.980;8.410;2023-05-27T12:18:53;100676.69;;;29.41;32.04
32789;BME280;19141;48.980;8.410;2023-05-27T12:21:20;100658.03;;;28.70;32.22
32789;BME280;19141;48.980;8.410;2023-05-27T12:23:46;100664.72;;;29.27;32.25
32789;BME280;19141;48.980;8.410;2023-05-27T12:26:12;100660.16;;;29.46;30.66
32789;BME280;19141;48.980;8.410;2023-05-27T12:28:38;100656.91;;;29.15;31.62
32789;BME280;19141;48.980;8.410;2023-05-27T12:31:04;100659.53;;;29.25;31.31
32789;BME280;19141;48.980;8.410;2023-05-27T12:33:30;100662.69;;;29.42;30.92
32789;BME280;19141;48.980;8.410;2023-05-27T12:35:56;100647.50;;;29.55;31.83
32789;BME280;19141;48.980;8.410;2023-05-27T12:38:21;100651.91;;;29.22;31.49
32789;BME280;19141;48.980;8.410;2023-05-27T12:40:47;100651.81;;;29.85;30.94
32789;BME280;19141;48.980;8.410;2023-05-27T12:43:14;100649.72;;;30.01;30.70
32789;BME280;19141;48.980;8.410;2023-05-27T12:45:40;100647.16;;;29.62;31.45
32789;BME280;19141;48.980;8.410;2023-05-27T12:48:05;100633.50;;;29.81;31.41
32789;BME280;19141;48.980;8.410;2023-05-27T12:50:31;100645.13;;;30.20;29.80
32789;BME280;19141;48.980;8.410;2023-05-27T12:52:57;100636.00;;;29.77;29.76
32789;BME280;19141;48.980;8.410;2023-05-27T12:55:23;100640.50;;;29.92;30.81
32789;BME280;19141;48.980;8.410;2023-05-27T12:57:50;100629.81;;;29.37;30.97
32789;BME280;19141;48.980;8.410;2023-05-27T13:00:17;100629.16;;;29.98;29.94
32789;BME280;19141;48.980;8.410;2023-05-27T13:02:44;100616.97;;;30.10;28.64
32789;BME280;19141;48.980;8.410;2023-05-27T13:05:10;100619.00;;;30.23;29.92
32789;BME280;19141;48.980;8.410;2023-05-27T13:07:36;100613.44;;;30.04;29.76
32789;BME280;19141;48.980;8.410;2023-05-27T13:10:06;100597.09;;;27.79;32.17
32789;BME280;19141;48.980;8.410;2023-05-27T13:12:33;100609.19;;;28.77;32.04
32789;BME280;19141;48.980;8.410;2023-05-27T13:14:59;100610.38;;;29.00;31.70
32789;BME280;19141;48.980;8.410;2023-05-27T13:17:26;100605.44;;;28.62;31.73
32789;BME280;19141;48.980;8.410;2023-05-27T13:19:52;100593.06;;;27.41;32.12
32789;BME280;19141;48.980;8.410;2023-05-27T13:22:17;100597.34;;;27.77;33.71
32789;BME280;19141;48.980;8.410;2023-05-27T13:24:43;100598.50;;;27.51;32.64
32789;BME280;19141;48.980;8.410;2023-05-27T13:27:08;100600.72;;;27.28;32.72
32789;BME280;19141;48.980;8.410;2023-05-27T13:29:34;100591.44;;;27.35;32.67
32789;BME280;19141;48.980;8.410;2023-05-27T13:32:01;100590.03;;;26.66;33.58
32789;BME280;19141;48.980;8.410;2023-05-27T13:34:27;100588.38;;;26.60;33.28
32789;BME280;19141;48.980;8.410;2023-05-27T13:36:53;100587.84;;;26.42;33.84
32789;BME280;19141;48.980;8.410;2023-05-27T13:39:19;100580.31;;;26.02;36.02
32789;BME280;19141;48.980;8.410;2023-05-27T13:41:44;100578.00;;;25.74;35.18
32789;BME280;19141;48.980;8.410;2023-05-27T13:44:10;100575.69;;;26.08;34.75
32789;BME280;19141;48.980;8.410;2023-05-27T13:46:35;100580.06;;;26.14;34.39
32789;BME280;19141;48.980;8.410;2023-05-27T13:49:01;100568.84;;;26.00;35.32
32789;BME280;19141;48.980;8.410;2023-05-27T13:51:29;100561.72;;;25.89;34.19
32789;BME280;19141;48.980;8.410;2023-05-27T13:53:54;100557.97;;;26.15;34.40
32789;BME280;19141;48.980;8.410;2023-05-27T13:56:19;100562.31;;;26.06;35.20
32789;BME280;19141;48.980;8.410;2023-05-27T13:58:46;100562.28;;;25.49;34.38
32789;BME280;19141;48.980;8.410;2023-05-27T14:01:12;100548.84;;;25.32;35.56
32789;BME280;19141;48.980;8.410;2023-05-27T14:03:37;100545.06;;;25.38;35.56
32789;BME280;19141;48.980;8.410;2023-05-27T14:06:03;100546.16;;;25.00;35.51
32789;BME280;19141;48.980;8.410;2023-05-27T14:08:28;100544.91;;;25.12;35.84
32789;BME280;19141;48.980;8.410;2023-05-27T14:10:53;100538.59;;;25.07;35.94
32789;BME280;19141;48.980;8.410;2023-05-27T14:13:19;100546.50;;;25.08;34.90
32789;BME280;19141;48.980;8.410;2023-05-27T14:15:44;100533.47;;;25.10;35.52
32789;BME280;19141;48.980;8.410;2023-05-27T14:18:10;100521.81;;;24.88;35.68
32789;BME280;19141;48.980;8.410;2023-05-27T14:20:35;100524.28;;;24.89;35.67
32789;BME280;19141;48.980;8.410;2023-05-27T14:23:01;100524.81;;;24.86;36.90
32789;BME280;19141;48.980;8.410;2023-05-27T14:25:29;100520.72;;;24.89;36.25
32789;BME280;19141;48.980;8.410;2023-05-27T14:27:54;100517.97;;;24.84;35.91
32789;BME280;19141;48.980;8.410;2023-05-27T14:30:22;100518.97;;;24.73;35.47
32789;BME280;19141;48.980;8.410;2023-05-27T14:32:49;100517.13;;;24.83;35.30
32789;BME280;19141;48.980;8.410;2023-05-27T14:35:15;100514.78;;;24.60;35.83
32789;BME280;19141;48.980;8.410;2023-05-27T14:37:40;100525.41;;;24.61;36.05
32789;BME280;19141;48.980;8.410;2023-05-27T14:40:06;100520.88;;;24.72;36.18
32789;BME280;19141;48.980;8.410;2023-05-27T14:42:32;100514.41;;;24.78;34.70
32789;BME280;19141;48.980;8.410;2023-05-27T14:44:57;100523.38;;;24.79;35.11
32789;BME280;19141;48.980;8.410;2023-05-27T14:47:23;100511.91;;;24.77;34.56
32789;BME280;19141;48.980;8.410;2023-05-27T14:49:48;100510.22;;;24.66;35.13
32789;BME280;19141;48.980;8.410;2023-05-27T14:52:14;100502.00;;;24.60;35.36
32789;BME280;19141;48.980;8.410;2023-05-27T14:54:39;100501.88;;;24.45;35.92
32789;BME280;19141;48.980;8.410;2023-05-27T14:57:04;100503.19;;;24.43;35.70
32789;BME280;19141;48.980;8.410;2023-05-27T14:59:30;100498.63;;;24.21;36.09
32789;BME280;19141;48.980;8.410;2023-05-27T15:01:56;100492.81;;;24.13;35.37
32789;BME280;19141;48.980;8.410;2023-05-27T15:04:21;100495.84;;;24.16;36.24
32789;BME280;19141;48.980;8.410;2023-05-27T15:06:46;100495.63;;;24.23;35.85
32789;BME280;19141;48.980;8.410;2023-05-27T15:09:12;100497.25;;;24.24;36.09
32789;BME280;19141;48.980;8.410;2023-05-27T15:11:38;100491.00;;;24.23;35.73
32789;BME280;19141;48.980;8.410;2023-05-27T15:14:03;100498.88;;;24.20;35.66
32789;BME280;19141;48.980;8.410;2023-05-27T15:16:29;100504.78;;;24.39;36.01
32789;BME280;19141;48.980;8.410;2023-05-27T15:18:55;100497.69;;;24.38;36.27
32789;BME280;19141;48.980;8.410;2023-05-27T15:21:20;100491.06;;;24.28;36.26
32789;BME280;19141;48.980;8.410;2023-05-27T15:23:46;100493.34;;;24.36;35.89
32789;BME280;19141;48.980;8.410;2023-05-27T15:26:12;100500.56;;;24.53;35.45
32789;BME280;19141;48.980;8.410;2023-05-27T15:28:37;100497.25;;;24.51;35.30
32789;BME280;19141;48.980;8.410;2023-05-27T15:31:03;100491.25;;;24.22;36.46
32789;BME280;19141;48.980;8.410;2023-05-27T15:33:28;100489.59;;;24.43;35.86
32789;BME280;19141;48.980;8.410;2023-05-27T15:35:53;100484.84;;;24.33;35.91
32789;BME280;19141;48.980;8.410;2023-05-27T15:38:19;100484.25;;;24.31;34.16
32789;BME280;19141;48.980;8.410;2023-05-27T15:40:44;100486.97;;;24.31;33.87
32789;BME280;19141;48.980;8.410;2023-05-27T15:43:11;100478.69;;;24.16;34.17
32789;BME280;19141;48.980;8.410;2023-05-27T15:45:37;100479.72;;;24.09;37.12
32789;BME280;19141;48.980;8.410;2023-05-27T15:48:09;100471.66;;;24.20;36.02
32789;BME280;19141;48.980;8.410;2023-05-27T15:50:40;100475.16;;;24.15;34.95
32789;BME280;19141;48.980;8.410;2023-05-27T15:53:07;100477.19;;;24.30;33.95
32789;BME280;19141;48.980;8.410;2023-05-27T15:55:33;100472.50;;;23.98;34.57
32789;BME280;19141;48.980;8.410;2023-05-27T15:57:58;100474.22;;;24.04;34.09
32789;BME280;19141;48.980;8.410;2023-05-27T16:00:24;100461.84;;;23.92;33.21
32789;BME280;19141;48.980;8.410;2023-05-27T16:02:49;100464.34;;;23.98;33.02
32789;BME280;19141;48.980;8.410;2023-05-27T16:05:15;100462.72;;;23.97;33.89
32789;BME280;19141;48.980;8.410;2023-05-27T16:07:41;100468.72;;;23.99;34.10
32789;BME280;19141;48.980;8.410;2023-05-27T16:10:07;100463.03;;;24.01;33.25
32789;BME280;19141;48.980;8.410;2023-05-27T16:12:33;100466.66;;;23.85;33.61
32789;BME280;19141;48.980;8.410;2023-05-27T16:14:58;100459.28;;;23.80;33.40
32789;BME280;19141;48.980;8.410;2023-05-27T16:17:23;100457.13;;;23.82;33.03
32789;BME280;19141;48.980;8.410;2023-05-27T16:19:54;100453.59;;;23.81;32.50
32789;BME280;19141;48.980;8.410;2023-05-27T16:22:19;100453.59;;;23.81;32.92
32789;BME280;19141;48.980;8.410;2023-05-27T16:24:45;100452.34;;;23.67;32.77
32789;BME280;19141;48.980;8.410;2023-05-27T16:27:10;100440.81;;;23.82;32.87
32789;BME280;19141;48.980;8.410;2023-05-27T16:29:36;100446.81;;;23.84;33.36
32789;BME280;19141;48.980;8.410;2023-05-27T16:32:01;100440.19;;;23.75;33.53
32789;BME280;19141;48.980;8.410;2023-05-27T16:34:26;100439.31;;;23.69;33.51
32789;BME280;19141;48.980;8.410;2023-05-27T16:36:52;100445.50;;;23.65;34.25
32789;BME280;19141;48.980;8.410;2023-05-27T16:39:17;100439.03;;;23.71;32.72
32789;BME280;19141;48.980;8.410;2023-05-27T16:41:42;100437.91;;;23.67;32.65
32789;BME280;19141;48.980;8.410;2023-05-27T16:44:08;100439.56;;;23.68;33.76
32789;BME280;19141;48.980;8.410;2023-05-27T16:46:33;100434.13;;;23.68;33.47
32789;BME280;19141;48.980;8.410;2023-05-27T16:48:59;100438.56;;;23.74;33.48
32789;BME280;19141;48.980;8.410;2023-05-27T16:51:25;100433.88;;;23.69;33.11
32789;BME280;19141;48.980;8.410;2023-05-27T16:53:51;100423.75;;;23.65;32.82
32789;BME280;19141;48.980;8.410;2023-05-27T16:56:16;100423.28;;;23.51;33.26
32789;BME280;19141;48.980;8.410;2023-05-27T16:58:42;100420.91;;;23.54;33.63
32789;BME280;19141;48.980;8.410;2023-05-27T17:01:07;100427.34;;;23.48;32.39
32789;BME280;19141;48.980;8.410;2023-05-27T17:03:32;100422.75;;;23.49;33.12
32789;BME280;19141;48.980;8.410;2023-05-27T17:05:58;100425.66;;;23.42;33.84
32789;BME280;19141;48.980;8.410;2023-05-27T17:08:24;100422.34;;;23.40;33.01
32789;BME280;19141;48.980;8.410;2023-05-27T17:10:49;100430.75;;;23.39;32.68
32789;BME280;19141;48.980;8.410;2023-05-27T17:13:14;100425.59;;;23.37;33.49
32789;BME280;19141;48.980;8.410;2023-05-27T17:15:41;100424.88;;;23.25;33.18
32789;BME280;19141;48.980;8.410;2023-05-27T17:18:07;100428.75;;;23.29;32.98
32789;BME280;19141;48.980;8.410;2023-05-27T17:20:32;100430.13;;;23.32;33.45